createdAt,value
2022-08-30T00:01:05.244Z,71.30
2022-08-30T00:02:07.270Z,70.70
2022-08-30T00:03:11.755Z,70.90
2022-08-30T00:04:13.654Z,70.70
2022-08-30T00:05:16.993Z,70.80
2022-08-30T00:06:19.926Z,70.90
2022-08-30T00:07:22.312Z,70.70
2022-08-30T00:08:24.234Z,71.30
2022-08-30T00:09:26.015Z,72.10
2022-08-30T00:10:29.250Z,72.50
2022-08-30T00:11:30.984Z,73.10
2022-08-30T00:12:32.832Z,73.30
2022-08-30T00:13:34.766Z,73.10
2022-08-30T00:14:36.682Z,73.30
2022-08-30T00:15:40.106Z,73.30
2022-08-30T00:16:41.860Z,73.00
2022-08-30T00:17:43.672Z,73.20
2022-08-30T00:18:45.510Z,73.00
2022-08-30T00:19:47.278Z,72.30
2022-08-30T00:20:50.301Z,72.20
2022-08-30T00:21:53.507Z,72.30
2022-08-30T00:22:55.297Z,72.50
2022-08-30T00:23:57.068Z,72.10
2022-08-30T00:25:00.828Z,72.60
2022-08-30T00:26:03.338Z,72.50
2022-08-30T00:27:05.199Z,73.00
2022-08-30T00:28:06.942Z,72.80
2022-08-30T00:29:08.715Z,72.20
2022-08-30T00:30:11.608Z,72.50
2022-08-30T00:31:15.593Z,72.30
2022-08-30T00:32:18.458Z,71.90
2022-08-30T00:33:21.060Z,71.70
2022-08-30T00:34:22.835Z,71.60
2022-08-30T00:35:25.231Z,71.80
2022-08-30T00:36:27.670Z,72.70
2022-08-30T00:37:29.475Z,73.20
2022-08-30T00:38:31.398Z,72.40
2022-08-30T00:39:33.106Z,72.40
2022-08-30T00:40:36.033Z,72.60
2022-08-30T00:41:37.825Z,72.70
2022-08-30T00:42:39.559Z,72.60
2022-08-30T00:43:41.433Z,73.30
2022-08-30T00:44:44.143Z,73.50
2022-08-30T00:45:46.056Z,73.40
2022-08-30T00:46:47.821Z,73.10
2022-08-30T00:47:49.982Z,73.10
2022-08-30T00:48:52.804Z,73.30
2022-08-30T00:49:56.311Z,73.80
2022-08-30T00:51:02.556Z,73.30
2022-08-30T00:52:06.177Z,73.30
2022-08-30T00:53:13.671Z,73.50
2022-08-30T00:54:16.898Z,73.10
2022-08-30T00:55:19.583Z,73.00
2022-08-30T00:56:22.509Z,73.30
2022-08-30T00:57:24.284Z,73.10
2022-08-30T00:58:33.325Z,73.10
2022-08-30T00:59:35.256Z,72.60
2022-08-30T01:00:37.309Z,72.70
2022-08-30T01:01:39.330Z,72.70
2022-08-30T01:02:42.189Z,72.90
2022-08-30T01:03:44.782Z,73.00
2022-08-30T01:04:47.449Z,73.10
2022-08-30T01:05:51.737Z,73.40
2022-08-30T01:06:54.089Z,73.30
2022-08-30T01:07:55.806Z,72.90
2022-08-30T01:08:57.692Z,72.80
2022-08-30T01:09:59.408Z,73.50
2022-08-30T01:11:03.183Z,72.80
2022-08-30T01:12:06.149Z,73.10
2022-08-30T01:13:09.463Z,72.90
2022-08-30T01:14:12.356Z,72.60
2022-08-30T01:15:15.025Z,73.10
2022-08-30T01:16:16.926Z,72.90
2022-08-30T01:17:19.348Z,73.00
2022-08-30T01:18:25.650Z,72.90
2022-08-30T01:19:45.942Z,73.10
2022-08-30T01:21:03.576Z,73.60
2022-08-30T01:22:33.898Z,73.90
2022-08-30T01:23:39.472Z,73.50
2022-08-30T01:24:43.729Z,73.70
2022-08-30T01:25:48.134Z,73.90
2022-08-30T01:26:49.855Z,74.00
2022-08-30T01:27:56.995Z,74.00
2022-08-30T01:29:03.424Z,73.80
2022-08-30T01:30:06.645Z,73.90
2022-08-30T01:31:08.631Z,73.90
2022-08-30T01:32:21.057Z,74.40
2022-08-30T01:33:23.297Z,74.30
2022-08-30T01:34:25.617Z,74.00
2022-08-30T01:35:34.977Z,73.90
2022-08-30T01:36:44.555Z,73.70
2022-08-30T01:37:47.464Z,73.50
2022-08-30T01:38:53.186Z,73.40
2022-08-30T01:39:55.130Z,73.50
2022-08-30T01:41:07.580Z,73.10
2022-08-30T01:42:09.343Z,73.70
2022-08-30T01:43:13.817Z,73.10
2022-08-30T01:44:16.408Z,73.30
2022-08-30T01:45:18.272Z,73.50
2022-08-30T01:46:24.305Z,74.00
2022-08-30T01:47:26.219Z,73.60
2022-08-30T01:48:30.979Z,73.60
2022-08-30T01:49:33.081Z,74.00
2022-08-30T01:50:34.955Z,74.00
2022-08-30T01:51:38.936Z,73.70
2022-08-30T01:52:40.718Z,74.00
2022-08-30T01:53:45.034Z,74.00
2022-08-30T01:54:47.985Z,74.10
2022-08-30T01:55:49.683Z,73.80
2022-08-30T01:56:51.447Z,74.00
2022-08-30T01:57:53.173Z,74.30
2022-08-30T01:59:00.396Z,74.70
2022-08-30T02:00:08.731Z,74.70
2022-08-30T02:01:15.011Z,74.60
2022-08-30T02:02:23.187Z,74.50
2022-08-30T02:03:26.606Z,74.70
2022-08-30T02:04:28.441Z,75.10
2022-08-30T02:05:30.222Z,75.00
2022-08-30T02:06:32.408Z,75.20
2022-08-30T02:07:34.217Z,75.70
2022-08-30T02:08:37.456Z,75.70
2022-08-30T02:09:39.391Z,76.20
2022-08-30T02:10:41.411Z,76.10
2022-08-30T02:11:43.576Z,76.20
2022-08-30T02:12:45.306Z,76.60
2022-08-30T02:13:47.211Z,76.10
2022-08-30T02:14:49.037Z,76.00
2022-08-30T02:15:50.774Z,76.00
2022-08-30T02:16:52.883Z,75.90
2022-08-30T02:17:54.672Z,76.40
2022-08-30T02:18:57.241Z,76.10
2022-08-30T02:19:59.280Z,76.20
2022-08-30T02:21:01.185Z,76.00
2022-08-30T02:22:02.988Z,76.20
2022-08-30T02:23:04.685Z,75.90
2022-08-30T02:24:06.560Z,76.10
2022-08-30T02:25:20.498Z,76.10
2022-08-30T02:26:23.992Z,76.90
2022-08-30T02:27:26.665Z,76.40
2022-08-30T02:28:28.402Z,76.60
2022-08-30T02:29:30.201Z,76.20
2022-08-30T02:30:31.997Z,76.80
2022-08-30T02:31:33.775Z,76.40
2022-08-30T02:32:35.518Z,76.60
2022-08-30T02:33:38.159Z,76.40
2022-08-30T02:34:42.297Z,76.20
2022-08-30T02:35:44.045Z,76.60
2022-08-30T02:36:46.663Z,76.60
2022-08-30T02:37:48.485Z,76.60
2022-08-30T02:38:51.201Z,76.40
2022-08-30T02:39:53.006Z,76.40
2022-08-30T02:40:54.723Z,76.10
2022-08-30T02:41:56.462Z,76.10
2022-08-30T02:42:58.548Z,76.30
2022-08-30T02:44:00.631Z,76.00
2022-08-30T02:45:02.701Z,76.00
2022-08-30T02:46:04.796Z,75.70
2022-08-30T02:47:06.801Z,75.90
2022-08-30T02:48:08.855Z,76.00
2022-08-30T02:49:32.709Z,76.20
2022-08-30T02:50:32.378Z,76.50
2022-08-30T02:51:34.745Z,75.90
2022-08-30T02:52:38.021Z,76.30
2022-08-30T02:53:41.323Z,76.20
2022-08-30T02:54:43.085Z,76.00
2022-08-30T02:55:44.990Z,75.30
2022-08-30T02:56:47.917Z,75.00
2022-08-30T02:57:49.702Z,75.30
2022-08-30T02:58:51.480Z,75.60
2022-08-30T02:59:53.529Z,75.80
2022-08-30T03:00:55.558Z,75.80
2022-08-30T03:01:57.305Z,76.00
2022-08-30T03:02:59.052Z,75.90
2022-08-30T03:04:00.875Z,75.90
2022-08-30T03:05:03.366Z,75.80
2022-08-30T03:06:05.252Z,75.60
2022-08-30T03:07:08.337Z,76.10
2022-08-30T03:08:10.847Z,76.30
2022-08-30T03:09:12.643Z,76.30
2022-08-30T03:10:15.804Z,76.40
2022-08-30T03:11:17.626Z,76.70
2022-08-30T03:12:19.386Z,77.00
2022-08-30T03:13:21.184Z,76.60
2022-08-30T03:14:23.066Z,76.70
2022-08-30T03:15:25.775Z,76.70
2022-08-30T03:16:27.492Z,77.20
2022-08-30T03:17:31.169Z,76.50
2022-08-30T03:18:33.527Z,76.40
2022-08-30T03:19:36.428Z,76.50
2022-08-30T03:20:38.736Z,76.30
2022-08-30T03:21:40.473Z,76.20
2022-08-30T03:22:42.202Z,76.10
2022-08-30T03:23:44.469Z,76.80
2022-08-30T03:24:46.196Z,76.30
2022-08-30T03:25:47.894Z,76.40
2022-08-30T03:26:49.648Z,76.30
2022-08-30T03:27:51.410Z,76.10
2022-08-30T03:28:53.508Z,76.30
2022-08-30T03:29:55.848Z,76.40
2022-08-30T03:30:57.585Z,76.30
2022-08-30T03:31:59.429Z,76.10
2022-08-30T03:33:02.512Z,76.00
2022-08-30T03:34:05.496Z,76.10
2022-08-30T03:35:09.108Z,76.00
2022-08-30T03:36:12.041Z,76.10
2022-08-30T03:37:14.035Z,76.20
2022-08-30T03:38:16.530Z,75.60
2022-08-30T03:39:18.641Z,75.90
2022-08-30T03:40:22.244Z,76.00
2022-08-30T03:41:25.467Z,76.00
2022-08-30T03:42:27.170Z,76.00
2022-08-30T03:43:29.551Z,75.90
2022-08-30T03:44:31.448Z,76.10
2022-08-30T03:45:33.733Z,75.90
2022-08-30T03:46:37.504Z,75.80
2022-08-30T03:47:41.872Z,76.00
2022-08-30T03:48:44.085Z,75.80
2022-08-30T03:49:45.814Z,75.80
2022-08-30T03:50:47.545Z,75.70
2022-08-30T03:51:49.347Z,76.00
2022-08-30T03:52:51.075Z,76.10
2022-08-30T03:53:52.871Z,75.70
2022-08-30T03:54:54.852Z,75.80
2022-08-30T03:55:57.289Z,76.10
2022-08-30T03:56:59.324Z,75.80
2022-08-30T03:58:01.066Z,76.00
2022-08-30T03:59:02.978Z,76.00
2022-08-30T04:00:07.052Z,75.70
2022-08-30T04:01:08.868Z,75.80
2022-08-30T04:02:10.777Z,75.70
2022-08-30T04:03:13.461Z,75.80
2022-08-30T04:04:20.552Z,76.60
2022-08-30T04:05:22.763Z,76.00
2022-08-30T04:06:24.634Z,76.00
2022-08-30T04:07:26.391Z,75.70
2022-08-30T04:08:28.204Z,75.70
2022-08-30T04:09:29.959Z,75.60
2022-08-30T04:10:31.874Z,75.60
2022-08-30T04:11:33.946Z,75.50
2022-08-30T04:12:38.499Z,75.20
2022-08-30T04:13:40.482Z,75.30
2022-08-30T04:14:42.197Z,75.20
2022-08-30T04:15:43.941Z,75.50
2022-08-30T04:16:45.793Z,75.40
2022-08-30T04:17:49.388Z,75.50
2022-08-30T04:18:51.112Z,75.40
2022-08-30T04:19:52.841Z,75.00
2022-08-30T04:20:54.609Z,74.80
2022-08-30T04:21:57.333Z,74.80
2022-08-30T04:22:59.172Z,74.90
2022-08-30T04:24:00.980Z,74.80
2022-08-30T04:25:04.600Z,74.80
2022-08-30T04:26:06.400Z,75.10
2022-08-30T04:27:09.090Z,75.10
2022-08-30T04:28:11.425Z,74.70
2022-08-30T04:29:17.230Z,74.50
2022-08-30T04:30:19.621Z,75.20
2022-08-30T04:31:22.044Z,75.00
2022-08-30T04:32:23.815Z,75.00
2022-08-30T04:33:25.556Z,75.10
2022-08-30T04:34:27.361Z,75.20
2022-08-30T04:35:29.056Z,75.20
2022-08-30T04:36:30.839Z,75.40
2022-08-30T04:37:32.663Z,75.80
2022-08-30T04:38:36.381Z,75.70
2022-08-30T04:39:38.666Z,75.40
2022-08-30T04:40:45.945Z,76.50
2022-08-30T04:41:48.430Z,75.70
2022-08-30T04:42:54.153Z,76.10
2022-08-30T04:43:55.893Z,75.90
2022-08-30T04:44:58.704Z,75.80
2022-08-30T04:46:04.820Z,75.90
2022-08-30T04:47:08.453Z,76.20
2022-08-30T04:48:10.441Z,76.00
2022-08-30T04:49:12.167Z,75.70
2022-08-30T04:50:19.218Z,76.00
2022-08-30T04:51:20.982Z,76.10
2022-08-30T04:52:22.978Z,76.50
2022-08-30T04:53:24.720Z,76.20
2022-08-30T04:54:26.449Z,76.00
2022-08-30T04:55:28.225Z,76.20
2022-08-30T04:56:30.389Z,75.70
2022-08-30T04:57:32.502Z,75.90
2022-08-30T04:58:34.246Z,75.60
2022-08-30T04:59:36.007Z,76.00
2022-08-30T05:00:37.991Z,76.50
2022-08-30T05:01:45.366Z,76.20
2022-08-30T05:02:48.330Z,77.00
2022-08-30T05:03:51.499Z,76.60
2022-08-30T05:05:11.674Z,76.40
2022-08-30T05:06:17.133Z,77.00
2022-08-30T05:07:18.832Z,76.40
2022-08-30T05:08:24.828Z,76.10
2022-08-30T05:09:26.742Z,76.50
2022-08-30T05:10:28.953Z,76.40
2022-08-30T05:11:31.650Z,76.50
2022-08-30T05:12:33.463Z,76.70
2022-08-30T05:13:36.968Z,76.50
2022-08-30T05:14:38.783Z,76.50
2022-08-30T05:15:40.631Z,76.30
2022-08-30T05:16:42.917Z,76.20
2022-08-30T05:17:44.676Z,75.90
2022-08-30T05:18:48.207Z,75.90
2022-08-30T05:19:49.980Z,76.00
2022-08-30T05:21:04.001Z,76.20
2022-08-30T05:22:05.741Z,76.40
2022-08-30T05:23:07.649Z,76.50
2022-08-30T05:24:09.475Z,76.50
2022-08-30T05:25:11.210Z,76.50
2022-08-30T05:26:20.215Z,76.30
2022-08-30T05:27:21.939Z,76.10
2022-08-30T05:28:26.204Z,76.20
2022-08-30T05:29:28.181Z,75.60
2022-08-30T05:30:33.289Z,75.60
2022-08-30T05:31:36.404Z,75.80
2022-08-30T05:32:38.167Z,75.70
2022-08-30T05:33:39.927Z,75.70
2022-08-30T05:34:41.624Z,75.50
2022-08-30T05:35:43.329Z,75.80
2022-08-30T05:36:45.039Z,75.70
2022-08-30T05:37:47.276Z,75.80
2022-08-30T05:38:50.110Z,75.60
2022-08-30T05:39:52.820Z,75.50
2022-08-30T05:40:54.535Z,76.00
2022-08-30T05:41:57.752Z,75.60
2022-08-30T05:43:00.246Z,76.00
2022-08-30T05:44:03.217Z,76.20
2022-08-30T05:45:05.624Z,75.90
2022-08-30T05:46:10.516Z,75.90
2022-08-30T05:47:12.328Z,75.70
2022-08-30T05:48:14.066Z,75.80
2022-08-30T05:49:16.346Z,75.70
2022-08-30T05:50:18.162Z,76.00
2022-08-30T05:51:23.450Z,75.60
2022-08-30T05:52:25.204Z,75.80
2022-08-30T05:53:26.903Z,75.70
2022-08-30T05:54:29.208Z,75.50
2022-08-30T05:55:31.103Z,76.00
2022-08-30T05:56:35.565Z,76.00
2022-08-30T05:57:40.014Z,75.90
2022-08-30T05:58:42.548Z,76.00
2022-08-30T05:59:44.620Z,76.30
2022-08-30T06:00:46.571Z,75.90
2022-08-30T06:01:48.442Z,76.10
2022-08-30T06:02:54.510Z,75.80
2022-08-30T06:04:03.025Z,75.30
2022-08-30T06:05:06.121Z,75.20
2022-08-30T06:06:07.970Z,75.20
2022-08-30T06:07:11.758Z,74.80
2022-08-30T06:08:16.724Z,74.70
2022-08-30T06:09:19.559Z,74.60
2022-08-30T06:10:21.278Z,74.70
2022-08-30T06:11:24.778Z,74.50
2022-08-30T06:12:27.988Z,74.10
2022-08-30T06:13:29.693Z,74.10
2022-08-30T06:14:31.403Z,74.40
2022-08-30T06:15:33.250Z,74.40
2022-08-30T06:16:38.821Z,74.70
2022-08-30T06:17:40.601Z,74.80
2022-08-30T06:18:42.411Z,74.30
2022-08-30T06:19:44.156Z,74.40
2022-08-30T06:20:50.505Z,75.90
2022-08-30T06:21:52.729Z,74.90
2022-08-30T06:22:54.427Z,74.90
2022-08-30T06:23:57.129Z,74.80
2022-08-30T06:24:58.843Z,73.70
2022-08-30T06:26:07.963Z,74.00
2022-08-30T06:27:10.835Z,73.20
2022-08-30T06:28:13.553Z,72.50
2022-08-30T06:29:19.760Z,73.00
2022-08-30T06:30:21.531Z,73.30
2022-08-30T06:31:25.433Z,73.70
2022-08-30T06:32:27.276Z,73.20
2022-08-30T06:33:28.980Z,73.00
2022-08-30T06:34:30.716Z,73.50
2022-08-30T06:35:38.130Z,74.20
2022-08-30T06:36:48.761Z,73.20
2022-08-30T06:37:50.465Z,74.30
2022-08-30T06:38:55.600Z,73.80
2022-08-30T06:40:00.001Z,73.70
2022-08-30T06:41:06.143Z,73.50
2022-08-30T06:42:07.895Z,73.70
2022-08-30T06:43:09.635Z,73.40
2022-08-30T06:44:11.775Z,72.90
2022-08-30T06:45:13.637Z,73.60
2022-08-30T06:46:20.187Z,73.10
2022-08-30T06:47:21.909Z,73.80
2022-08-30T06:48:23.644Z,73.20
2022-08-30T06:49:25.462Z,72.20
2022-08-30T06:50:27.807Z,71.30
2022-08-30T06:51:36.362Z,70.80
2022-08-30T06:52:38.942Z,71.20
2022-08-30T06:53:40.816Z,71.20
2022-08-30T06:54:42.559Z,71.00
2022-08-30T06:55:44.340Z,70.50
2022-08-30T06:56:58.296Z,70.10
2022-08-30T06:58:02.017Z,70.20
2022-08-30T06:59:04.506Z,69.30
2022-08-30T07:00:08.693Z,69.90
2022-08-30T07:01:23.049Z,70.00
2022-08-30T07:02:25.967Z,69.90
2022-08-30T07:03:27.942Z,70.20
2022-08-30T07:04:29.839Z,70.20
2022-08-30T07:05:33.027Z,70.60
2022-08-30T07:06:35.245Z,69.80
2022-08-30T07:07:36.973Z,69.80
2022-08-30T07:08:39.593Z,71.40
2022-08-30T07:09:43.351Z,69.00
2022-08-30T07:10:45.446Z,68.50
2022-08-30T07:11:47.521Z,68.40
2022-08-30T07:12:49.480Z,68.50
2022-08-30T07:13:51.252Z,67.90
2022-08-30T07:14:53.030Z,67.10
2022-08-30T07:15:54.953Z,67.10
2022-08-30T07:16:56.715Z,67.80
2022-08-30T07:18:17.388Z,67.60
2022-08-30T07:19:20.760Z,67.80
2022-08-30T07:20:23.127Z,67.20
2022-08-30T07:21:33.214Z,67.30
2022-08-30T07:22:34.992Z,66.50
2022-08-30T07:23:37.165Z,68.60
2022-08-30T07:24:38.899Z,67.60
2022-08-30T07:25:41.715Z,67.60
2022-08-30T07:26:49.863Z,68.40
2022-08-30T07:27:52.107Z,67.50
2022-08-30T07:28:55.901Z,65.00
2022-08-30T07:29:58.888Z,66.30
2022-08-30T07:31:00.816Z,66.70
2022-08-30T07:32:02.696Z,66.80
2022-08-30T07:33:05.116Z,66.40
2022-08-30T07:34:08.474Z,65.90
2022-08-30T07:35:10.885Z,65.90
2022-08-30T07:36:13.669Z,65.90
2022-08-30T07:37:17.990Z,65.40
2022-08-30T07:38:20.109Z,64.20
2022-08-30T07:39:22.027Z,64.30
2022-08-30T07:40:24.350Z,63.90
2022-08-30T07:41:35.658Z,62.80
2022-08-30T07:42:37.440Z,64.60
2022-08-30T07:43:39.211Z,63.90
2022-08-30T07:44:40.932Z,62.80
2022-08-30T07:45:42.698Z,63.50
2022-08-30T07:46:44.561Z,62.60
2022-08-30T07:47:46.321Z,63.10
2022-08-30T07:48:48.521Z,62.70
2022-08-30T07:49:50.252Z,62.10
2022-08-30T07:50:57.050Z,62.30
2022-08-30T07:51:59.989Z,63.10
2022-08-30T07:53:02.051Z,63.70
2022-08-30T07:54:04.191Z,61.90
2022-08-30T07:55:07.010Z,60.80
2022-08-30T07:56:08.918Z,60.90
2022-08-30T07:57:10.655Z,61.00
2022-08-30T07:58:12.384Z,61.00
2022-08-30T07:59:14.477Z,62.60
2022-08-30T08:00:16.568Z,62.40
2022-08-30T08:01:20.436Z,62.10
2022-08-30T08:02:22.494Z,61.20
2022-08-30T08:03:24.201Z,61.90
2022-08-30T08:04:26.034Z,62.90
2022-08-30T08:05:27.765Z,59.80
2022-08-30T08:06:35.023Z,58.80
2022-08-30T08:07:37.018Z,58.40
2022-08-30T08:08:39.703Z,60.20
2022-08-30T08:09:41.656Z,60.00
2022-08-30T08:10:43.451Z,59.90
2022-08-30T08:11:45.227Z,59.20
2022-08-30T08:12:47.037Z,58.20
2022-08-30T08:13:54.056Z,58.40
2022-08-30T08:14:56.245Z,57.60
2022-08-30T08:15:58.026Z,57.80
2022-08-30T08:17:00.584Z,58.20
2022-08-30T08:18:02.374Z,57.70
2022-08-30T08:19:08.865Z,57.40
2022-08-30T08:20:11.078Z,57.70
2022-08-30T08:21:12.773Z,58.00
2022-08-30T08:22:20.907Z,58.50
2022-08-30T08:23:23.205Z,57.10
2022-08-30T08:24:24.905Z,57.80
2022-08-30T08:25:27.086Z,58.50
2022-08-30T08:26:28.997Z,57.90
2022-08-30T08:27:31.002Z,58.20
2022-08-30T08:28:32.789Z,57.30
2022-08-30T08:29:34.585Z,57.20
2022-08-30T08:30:37.838Z,56.70
2022-08-30T08:31:41.422Z,55.90
2022-08-30T08:32:43.400Z,55.60
2022-08-30T08:33:45.345Z,55.40
2022-08-30T08:34:47.221Z,54.90
2022-08-30T08:35:49.621Z,55.30
2022-08-30T08:36:51.762Z,54.60
2022-08-30T08:37:53.511Z,55.70
2022-08-30T08:38:55.565Z,56.00
2022-08-30T08:39:57.350Z,55.70
2022-08-30T08:41:29.485Z,55.20
2022-08-30T08:42:49.034Z,55.40
2022-08-30T08:43:51.264Z,55.20
2022-08-30T08:45:03.830Z,55.70
2022-08-30T08:46:23.092Z,55.40
2022-08-30T08:47:47.198Z,54.70
2022-08-30T08:49:00.814Z,54.60
2022-08-30T08:50:05.820Z,54.90
2022-08-30T08:51:32.797Z,55.20
2022-08-30T08:53:45.571Z,55.10
2022-08-30T08:55:07.276Z,55.30
2022-08-30T08:56:15.171Z,54.50
2022-08-30T08:57:18.556Z,54.70
2022-08-30T08:58:29.136Z,56.20
2022-08-30T08:59:31.076Z,53.80
2022-08-30T09:00:33.098Z,53.60
2022-08-30T09:01:35.386Z,53.60
2022-08-30T09:02:44.894Z,53.60
2022-08-30T09:03:47.239Z,53.80
2022-08-30T09:04:51.053Z,53.20
2022-08-30T09:05:54.848Z,53.20
2022-08-30T09:07:09.042Z,53.00
2022-08-30T09:08:14.753Z,52.90
2022-08-30T09:09:20.452Z,54.20
2022-08-30T09:10:40.547Z,54.50
2022-08-30T09:11:47.877Z,52.90
2022-08-30T09:12:49.570Z,51.60
2022-08-30T09:13:51.863Z,50.80
2022-08-30T09:14:56.908Z,52.30
2022-08-30T09:16:00.978Z,51.60
2022-08-30T09:17:07.283Z,51.80
2022-08-30T09:18:16.901Z,52.90
2022-08-30T09:19:54.118Z,51.90
2022-08-30T09:21:06.039Z,51.80
2022-08-30T09:22:33.796Z,51.60
2022-08-30T09:23:35.540Z,51.10
2022-08-30T09:24:48.204Z,50.90
2022-08-30T09:25:55.765Z,50.40
2022-08-30T09:27:02.982Z,50.00
2022-08-30T09:28:16.093Z,50.20
2022-08-30T09:29:19.543Z,50.50
2022-08-30T09:30:25.836Z,51.50
2022-08-30T09:31:33.778Z,50.40
2022-08-30T09:32:42.086Z,49.50
2022-08-30T09:34:06.868Z,50.30
2022-08-30T09:35:19.968Z,52.30
2022-08-30T09:36:33.440Z,50.30
2022-08-30T09:37:45.199Z,50.10
2022-08-30T09:38:59.166Z,51.20
2022-08-30T09:40:02.425Z,50.20
2022-08-30T09:41:35.370Z,50.90
2022-08-30T09:42:37.349Z,51.10
2022-08-30T09:43:39.069Z,50.60
2022-08-30T09:44:40.827Z,50.40
2022-08-30T09:45:47.860Z,51.10
2022-08-30T09:46:56.047Z,51.00
2022-08-30T09:47:57.892Z,50.60
2022-08-30T09:48:59.652Z,50.40
2022-08-30T09:50:06.683Z,51.60
2022-08-30T09:51:11.635Z,50.60
2022-08-30T09:52:55.362Z,50.40
2022-08-30T09:54:17.058Z,51.00
2022-08-30T09:55:47.233Z,50.60
2022-08-30T09:59:02.652Z,50.90
2022-08-30T10:00:13.477Z,51.10
2022-08-30T10:01:29.311Z,49.90
2022-08-30T10:03:10.136Z,50.90
2022-08-30T10:04:19.397Z,50.60
2022-08-30T10:05:32.808Z,51.30
2022-08-30T10:06:43.568Z,51.10
2022-08-30T10:08:13.120Z,51.10
2022-08-30T10:09:52.634Z,51.20
2022-08-30T10:10:58.313Z,51.20
2022-08-30T10:12:06.070Z,51.20
2022-08-30T10:13:33.593Z,51.50
2022-08-30T10:15:15.016Z,52.00
2022-08-30T10:16:19.259Z,52.20
2022-08-30T10:17:44.684Z,51.70
2022-08-30T10:19:17.007Z,52.20
2022-08-30T10:20:43.977Z,52.10
2022-08-30T10:22:08.321Z,51.50
2022-08-30T10:23:15.113Z,50.90
2022-08-30T10:24:23.431Z,50.00
2022-08-30T10:25:30.791Z,49.70
2022-08-30T10:26:45.204Z,48.60
2022-08-30T10:28:14.596Z,49.00
2022-08-30T10:29:42.290Z,48.30
2022-08-30T10:30:56.397Z,48.50
2022-08-30T10:32:04.708Z,49.00
2022-08-30T10:33:09.971Z,48.10
2022-08-30T10:34:20.868Z,47.10
2022-08-30T10:35:38.521Z,46.70
2022-08-30T10:36:45.361Z,47.70
2022-08-30T10:37:53.638Z,47.30
2022-08-30T10:38:56.511Z,46.20
2022-08-30T10:40:48.809Z,47.60
2022-08-30T10:42:00.301Z,47.50
2022-08-30T10:43:09.618Z,46.40
2022-08-30T10:44:41.441Z,45.30
2022-08-30T10:45:47.183Z,43.70
2022-08-30T10:47:09.038Z,42.80
2022-08-30T10:48:28.851Z,39.70
2022-08-30T10:49:37.391Z,39.50
2022-08-30T10:50:48.619Z,40.80
2022-08-30T10:52:18.174Z,40.80
2022-08-30T10:53:32.943Z,40.40
2022-08-30T10:54:50.576Z,40.40
2022-08-30T10:56:05.407Z,43.40
2022-08-30T10:57:07.100Z,41.30
2022-08-30T10:58:08.977Z,39.90
2022-08-30T10:59:11.828Z,40.00
2022-08-30T11:00:22.781Z,38.90
2022-08-30T11:01:28.268Z,39.60
2022-08-30T11:02:39.005Z,39.40
2022-08-30T11:04:21.446Z,39.00
2022-08-30T11:05:43.535Z,37.70
2022-08-30T11:07:05.881Z,37.20
2022-08-30T11:08:38.053Z,37.50
2022-08-30T11:10:02.933Z,37.90
2022-08-30T11:11:24.118Z,37.00
2022-08-30T11:12:34.425Z,37.00
2022-08-30T11:13:40.473Z,35.10
2022-08-30T11:14:44.895Z,34.40
2022-08-30T11:16:01.197Z,35.30
2022-08-30T11:17:02.921Z,35.00
2022-08-30T11:18:12.622Z,35.00
2022-08-30T11:19:38.705Z,34.80
2022-08-30T11:20:47.659Z,36.30
2022-08-30T11:21:50.878Z,35.90
2022-08-30T11:23:32.605Z,36.10
2022-08-30T11:25:10.269Z,36.90
2022-08-30T11:26:32.484Z,36.60
2022-08-30T11:27:52.623Z,37.20
2022-08-30T11:29:02.351Z,37.50
2022-08-30T11:30:26.900Z,37.60
2022-08-30T11:31:32.655Z,38.80
2022-08-30T11:33:09.442Z,39.40
2022-08-30T11:34:12.086Z,39.60
2022-08-30T11:35:48.163Z,38.90
2022-08-30T11:36:53.151Z,39.90
2022-08-30T11:37:55.506Z,40.20
2022-08-30T11:39:01.296Z,41.10
2022-08-30T11:40:07.381Z,41.10
2022-08-30T11:41:31.965Z,42.00
2022-08-30T11:42:37.567Z,42.10
2022-08-30T11:43:43.142Z,42.00
2022-08-30T11:44:44.890Z,42.20
2022-08-30T11:45:52.385Z,42.60
2022-08-30T11:47:50.977Z,41.80
2022-08-30T11:49:00.275Z,42.10
2022-08-30T11:50:23.236Z,43.00
2022-08-30T11:51:36.871Z,43.60
2022-08-30T11:52:59.813Z,43.30
2022-08-30T11:54:05.375Z,42.80
2022-08-30T11:55:12.595Z,43.40
2022-08-30T11:56:27.175Z,44.40
2022-08-30T11:57:40.440Z,44.30
2022-08-30T11:58:59.420Z,43.50
2022-08-30T12:00:12.121Z,43.90
2022-08-30T12:01:40.941Z,41.70
2022-08-30T12:02:52.472Z,41.80
2022-08-30T12:04:19.686Z,41.70
2022-08-30T12:05:42.855Z,41.40
2022-08-30T12:06:48.634Z,38.90
2022-08-30T12:08:00.407Z,38.70
2022-08-30T12:09:08.087Z,39.50
2022-08-30T12:10:23.251Z,38.10
2022-08-30T12:11:35.575Z,39.20
2022-08-30T12:12:49.105Z,38.70
2022-08-30T12:13:55.284Z,39.80
2022-08-30T12:14:57.770Z,39.30
2022-08-30T12:16:07.893Z,39.00
2022-08-30T12:17:51.039Z,39.40
2022-08-30T12:19:00.858Z,39.30
2022-08-30T12:20:05.535Z,39.10
2022-08-30T12:21:17.599Z,39.50
2022-08-30T12:22:19.884Z,39.10
2022-08-30T12:23:46.245Z,38.40
2022-08-30T12:24:52.725Z,40.00
2022-08-30T12:26:11.419Z,41.60
2022-08-30T12:27:32.798Z,42.70
2022-08-30T12:28:34.786Z,43.60
2022-08-30T12:29:36.512Z,44.30
2022-08-30T12:30:40.157Z,43.60
2022-08-30T12:31:58.107Z,44.80
2022-08-30T12:33:00.341Z,44.30
2022-08-30T12:34:05.827Z,44.30
2022-08-30T12:35:07.696Z,44.30
2022-08-30T12:36:15.184Z,44.90
2022-08-30T12:37:38.949Z,45.50
2022-08-30T12:38:45.006Z,46.40
2022-08-30T12:39:46.938Z,46.40
2022-08-30T12:41:00.148Z,45.60
2022-08-30T12:42:26.889Z,45.80
2022-08-30T12:43:47.596Z,46.70
2022-08-30T12:44:54.865Z,47.10
2022-08-30T12:46:00.915Z,48.00
2022-08-30T12:47:12.641Z,47.10
2022-08-30T12:48:18.936Z,47.10
2022-08-30T12:49:23.876Z,47.50
2022-08-30T12:50:37.716Z,47.80
2022-08-30T12:51:42.377Z,48.50
2022-08-30T12:52:47.441Z,48.30
2022-08-30T12:53:51.297Z,48.30
2022-08-30T12:54:55.206Z,48.30
2022-08-30T12:56:02.564Z,49.00
2022-08-30T12:57:25.569Z,48.40
2022-08-30T12:58:45.657Z,48.30
2022-08-30T12:59:59.572Z,49.60
2022-08-30T13:01:32.272Z,49.10
2022-08-30T13:02:53.194Z,50.60
2022-08-30T13:04:00.938Z,49.70
2022-08-30T13:05:32.166Z,48.70
2022-08-30T13:06:53.325Z,49.80
2022-08-30T13:08:09.499Z,49.50
2022-08-30T13:09:23.920Z,49.90
2022-08-30T13:10:26.066Z,50.30
2022-08-30T13:11:29.371Z,50.00
2022-08-30T13:12:32.267Z,50.00
2022-08-30T13:14:10.619Z,50.90
2022-08-30T13:15:20.223Z,49.30
2022-08-30T13:16:26.420Z,49.00
2022-08-30T13:17:31.080Z,49.40
2022-08-30T13:18:32.777Z,49.80
2022-08-30T13:19:37.762Z,48.10
2022-08-30T13:20:39.889Z,47.80
2022-08-30T13:21:56.470Z,47.30
2022-08-30T13:23:05.447Z,48.00
2022-08-30T13:24:07.207Z,48.40
2022-08-30T13:25:11.189Z,49.30
2022-08-30T13:26:13.112Z,49.30
2022-08-30T13:27:16.047Z,48.60
2022-08-30T13:28:17.977Z,48.90
2022-08-30T13:29:23.656Z,47.90
2022-08-30T13:30:25.437Z,48.00
2022-08-30T13:31:29.050Z,47.70
2022-08-30T13:32:38.795Z,48.40
2022-08-30T13:33:40.868Z,48.70
2022-08-30T13:34:43.050Z,48.90
2022-08-30T13:35:45.436Z,48.70
2022-08-30T13:36:50.545Z,47.70
2022-08-30T13:37:52.770Z,48.60
2022-08-30T13:38:55.423Z,48.20
2022-08-30T13:40:00.191Z,48.50
2022-08-30T13:41:05.851Z,47.90
2022-08-30T13:43:30.389Z,47.30
2022-08-30T13:44:51.985Z,47.20
2022-08-30T13:45:55.072Z,46.50
2022-08-30T13:47:32.324Z,46.10
2022-08-30T13:48:24.862Z,46.10
2022-08-30T13:49:45.946Z,46.30
2022-08-30T13:50:47.782Z,45.70
2022-08-30T13:52:18.481Z,45.20
2022-08-30T13:53:15.799Z,45.10
2022-08-30T13:54:18.585Z,44.70
2022-08-30T13:55:20.336Z,44.80
2022-08-30T13:56:24.213Z,44.90
2022-08-30T13:58:51.217Z,44.40
2022-08-30T13:59:52.992Z,43.20
2022-08-30T14:00:54.825Z,42.80
2022-08-30T14:02:13.647Z,43.90
2022-08-30T14:03:16.081Z,42.70
2022-08-30T14:04:18.432Z,43.00
2022-08-30T14:08:06.426Z,42.40
2022-08-30T14:09:10.496Z,42.40
2022-08-30T14:11:36.037Z,41.60
2022-08-30T14:12:53.522Z,41.20
2022-08-30T14:15:17.381Z,41.00
2022-08-30T14:16:27.038Z,41.80
2022-08-30T14:17:30.925Z,41.90
2022-08-30T14:18:32.948Z,42.40
2022-08-30T14:19:34.658Z,42.20
2022-08-30T14:20:38.428Z,42.20
2022-08-30T14:21:41.291Z,43.10
2022-08-30T14:22:43.011Z,42.70
2022-08-30T14:23:44.923Z,42.40
2022-08-30T14:24:46.662Z,42.90
2022-08-30T14:25:48.396Z,42.60
2022-08-30T14:26:52.652Z,43.10